createdAt,value
2019-04-22T00:00:32.803Z,27.47
2019-04-22T00:03:01.554Z,29.63
2019-04-22T00:05:42.900Z,29.00
2019-04-22T00:08:16.789Z,30.10
2019-04-22T00:10:50.254Z,29.40
2019-04-22T00:13:19.985Z,30.47
2019-04-22T00:15:36.739Z,30.53
2019-04-22T00:18:13.406Z,27.10
2019-04-22T00:20:42.291Z,28.23
2019-04-22T00:23:04.111Z,28.63
2019-04-22T00:25:34.840Z,29.70
2019-04-22T00:28:08.524Z,31.03
2019-04-22T00:30:25.549Z,28.97
2019-04-22T00:33:03.206Z,27.27
2019-04-22T00:35:29.310Z,28.43
2019-04-22T00:38:03.486Z,27.80
2019-04-22T00:40:30.183Z,26.93
2019-04-22T00:42:56.560Z,27.43
2019-04-22T00:45:31.064Z,27.90
2019-04-22T00:47:46.169Z,26.00
2019-04-22T00:50:18.875Z,26.60
2019-04-22T00:52:49.411Z,25.03
2019-04-22T00:57:42.490Z,24.37
2019-04-22T01:00:11.985Z,24.70
2019-04-22T01:02:41.519Z,24.77
2019-04-22T01:05:09.320Z,27.83
2019-04-22T01:07:30.819Z,26.17
2019-04-22T01:10:09.228Z,26.40
2019-04-22T01:12:34.336Z,25.20
2019-04-22T01:15:01.025Z,23.70
2019-04-22T01:17:34.362Z,22.13
2019-04-22T01:20:12.503Z,24.33
2019-04-22T01:22:22.393Z,25.13
2019-04-22T01:24:50.109Z,25.63
2019-04-22T01:27:11.498Z,24.47
2019-04-22T01:29:39.850Z,23.33
2019-04-22T01:31:54.478Z,24.27
2019-04-22T01:34:36.185Z,24.43
2019-04-22T01:37:11.732Z,26.03
2019-04-22T01:39:43.705Z,24.50
2019-04-22T01:42:28.616Z,24.90
2019-04-22T01:44:38.431Z,24.53
2019-04-22T01:49:33.629Z,23.37
2019-04-22T01:52:15.906Z,23.80
2019-04-22T01:54:35.773Z,22.60
2019-04-22T01:57:02.141Z,23.90
2019-04-22T01:59:19.839Z,23.13
2019-04-22T02:01:55.102Z,22.47
2019-04-22T02:04:26.890Z,22.10
2019-04-22T02:09:24.099Z,22.77
2019-04-22T02:14:19.615Z,22.30
2019-04-22T02:16:49.815Z,22.10
2019-04-22T02:19:18.447Z,22.47
2019-04-22T02:21:35.714Z,21.87
2019-04-22T02:24:15.944Z,21.87
2019-04-22T02:26:40.260Z,21.90
2019-04-22T02:29:03.455Z,22.73
2019-04-22T02:36:41.411Z,21.73
2019-04-22T02:49:04.094Z,22.90
2019-04-22T02:56:27.298Z,21.63
2019-04-22T02:58:58.382Z,22.70
2019-04-22T03:01:24.807Z,21.97
2019-04-22T03:06:24.115Z,21.53
2019-04-22T03:08:39.697Z,22.00
2019-04-22T03:11:12.428Z,23.20
2019-04-22T03:13:47.181Z,22.00
2019-04-22T03:16:07.919Z,21.53
2019-04-22T03:18:38.464Z,21.67
2019-04-22T03:21:07.895Z,20.93
2019-04-22T03:23:36.517Z,22.00
2019-04-22T03:28:32.795Z,24.03
2019-04-22T03:33:36.155Z,21.77
2019-04-22T03:36:02.602Z,22.13
2019-04-22T03:38:25.462Z,24.00
2019-04-22T03:43:35.131Z,22.63
2019-04-22T03:45:32.209Z,23.67
2019-04-22T03:48:07.779Z,24.93
2019-04-22T03:50:42.494Z,24.27
2019-04-22T03:53:09.854Z,25.93
2019-04-22T03:57:57.340Z,24.13
2019-04-22T04:15:28.447Z,26.93
2019-04-22T04:17:51.563Z,27.07
2019-04-22T04:25:27.299Z,26.83
2019-04-22T04:30:18.897Z,27.67
2019-04-22T04:35:35.050Z,26.03
2019-04-22T04:37:50.131Z,26.43
2019-04-22T04:40:18.347Z,26.07
2019-04-22T04:42:42.336Z,28.13
2019-04-22T04:47:43.952Z,27.37
2019-04-22T04:55:01.643Z,28.53
2019-04-22T04:57:37.205Z,30.47
2019-04-22T05:00:32.384Z,27.33
2019-04-22T05:02:19.911Z,26.93
2019-04-22T05:04:59.545Z,29.37
2019-04-22T05:07:18.687Z,28.40
2019-04-22T05:09:36.004Z,28.43
2019-04-22T05:12:24.644Z,29.73
2019-04-22T05:14:32.292Z,27.23
2019-04-22T05:17:14.311Z,27.57
2019-04-22T05:21:58.227Z,28.07
2019-04-22T05:27:02.099Z,28.67
2019-04-22T05:29:34.680Z,29.00
2019-04-22T05:31:52.204Z,28.90
2019-04-22T05:34:21.480Z,29.67
2019-04-22T05:36:48.453Z,29.40
2019-04-22T05:39:11.127Z,30.07
2019-04-22T05:41:44.558Z,28.40
2019-04-22T05:44:08.408Z,29.63
2019-04-22T05:46:34.796Z,30.23
2019-04-22T05:49:07.089Z,30.03
2019-04-22T05:51:37.065Z,30.30
2019-04-22T05:54:01.337Z,31.33
2019-04-22T05:56:34.215Z,30.90
2019-04-22T05:58:58.851Z,30.87
2019-04-22T06:03:59.207Z,31.03
2019-04-22T06:06:17.978Z,30.27
2019-04-22T06:08:51.037Z,30.63
2019-04-22T06:11:22.951Z,30.93
2019-04-22T06:13:45.038Z,31.97
2019-04-22T06:16:12.974Z,30.20
2019-04-22T06:18:42.010Z,29.93
2019-04-22T06:21:11.527Z,29.97
2019-04-22T06:23:44.068Z,30.40
2019-04-22T06:26:16.145Z,30.47
2019-04-22T06:28:40.672Z,30.60
2019-04-22T06:31:06.916Z,29.63
2019-04-22T06:33:34.496Z,30.17
2019-04-22T06:40:58.403Z,28.90
2019-04-22T06:43:23.597Z,29.23
2019-04-22T06:45:43.596Z,28.67
2019-04-22T06:48:19.160Z,29.50
2019-04-22T06:50:51.020Z,31.00
2019-04-22T06:53:29.880Z,29.70
2019-04-22T06:55:41.321Z,29.47
2019-04-22T06:58:10.879Z,30.40
2019-04-22T07:00:36.703Z,28.20
2019-04-22T07:05:43.741Z,28.90
2019-04-22T07:08:04.360Z,28.43
2019-04-22T07:12:58.404Z,27.93
2019-04-22T07:15:44.119Z,29.23
2019-04-22T07:17:58.203Z,28.33
2019-04-22T07:20:25.593Z,27.80
2019-04-22T07:22:51.492Z,27.83
2019-04-22T07:25:17.780Z,28.47
2019-04-22T07:27:46.069Z,27.60
2019-04-22T07:30:21.912Z,27.43
2019-04-22T07:33:04.517Z,27.90
2019-04-22T07:35:19.396Z,28.30
2019-04-22T07:40:02.211Z,27.93
2019-04-22T07:42:36.826Z,28.80
2019-04-22T07:45:08.613Z,27.70
2019-04-22T07:47:35.904Z,27.47
2019-04-22T07:49:58.975Z,26.10
2019-04-22T07:52:31.891Z,25.73
2019-04-22T07:54:57.930Z,23.40
2019-04-22T07:57:27.760Z,23.67
2019-04-22T07:59:58.070Z,25.63
2019-04-22T08:02:23.629Z,26.37
2019-04-22T08:04:57.960Z,25.97
2019-04-22T08:07:17.762Z,26.47
2019-04-22T08:09:53.912Z,27.50
2019-04-22T08:12:02.640Z,24.23
2019-04-22T08:14:42.281Z,25.50
2019-04-22T08:17:33.009Z,23.20
2019-04-22T08:19:37.324Z,26.33
2019-04-22T08:22:05.967Z,26.37
2019-04-22T08:24:35.612Z,24.90
2019-04-22T08:27:02.665Z,26.13
2019-04-22T08:31:54.815Z,21.20
2019-04-22T08:34:38.732Z,22.03
2019-04-22T08:37:12.222Z,21.60
2019-04-22T08:39:18.864Z,22.63
2019-04-22T08:41:39.928Z,22.30
2019-04-22T08:44:29.342Z,23.10
2019-04-22T08:49:10.239Z,24.30
2019-04-22T08:51:40.228Z,27.33
2019-04-22T08:56:43.652Z,26.23
2019-04-22T08:59:09.467Z,24.73
2019-04-22T09:01:44.392Z,25.87
2019-04-22T09:04:02.195Z,22.13
2019-04-22T09:06:47.980Z,21.30
2019-04-22T09:09:02.037Z,19.30
2019-04-22T09:11:26.932Z,19.80
2019-04-22T09:13:57.166Z,18.50
2019-04-22T09:16:27.796Z,17.57
2019-04-22T09:18:48.167Z,17.73
2019-04-22T09:21:31.619Z,16.37
2019-04-22T09:26:18.453Z,15.53
2019-04-22T09:28:44.563Z,14.67
2019-04-22T09:31:11.640Z,14.57
2019-04-22T09:33:36.872Z,14.57
2019-04-22T09:38:37.512Z,15.00
2019-04-22T09:41:00.005Z,14.23
2019-04-22T09:43:37.059Z,14.70
2019-04-22T09:45:57.505Z,14.37
2019-04-22T09:48:30.393Z,14.50
2019-04-22T09:50:52.493Z,14.67
2019-04-22T09:53:22.455Z,13.80
2019-04-22T09:55:50.006Z,13.57
2019-04-22T09:58:16.303Z,13.40
2019-04-22T10:00:52.844Z,14.43
2019-04-22T10:03:36.787Z,14.80
